Time;durP1;ratioP1;P1;durP2;ratioP2;P2;SDS_P1;SDS_P2;PMS_P1;PMS_P2;Temp;Humidity;BMP_temperature;BMP_pressure;BME280_temperature;BME280_humidity;BME280_pressure;Samples;Min_cycle;Max_cycle;Signal;HPM_P1;HPM_P2
2021/07/10 00:00:33;;;;;;;5.57;3.90;;;;;;;21.94;50.46;95150.38;4920862;29;20054;-81
2021/07/10 00:03:08;;;;;;;4.28;3.88;;;;;;;21.90;50.49;95157.34;4921190;29;20488;-80
2021/07/10 00:05:34;;;;;;;5.63;4.07;;;;;;;21.88;50.38;95141.75;4904924;29;20035;-81
2021/07/10 00:07:59;;;;;;;11.93;4.18;;;;;;;21.86;50.47;95130.66;4935476;29;20091;-81
2021/07/10 00:10:24;;;;;;;9.18;3.97;;;;;;;21.81;50.35;95140.59;4935702;29;20091;-81
2021/07/10 00:12:50;;;;;;;4.15;3.67;;;;;;;21.77;50.42;95134.28;4935797;29;20091;-81
2021/07/10 00:15:17;;;;;;;13.23;3.70;;;;;;;21.82;50.39;95131.56;4935776;29;20640;-81
2021/07/10 00:17:43;;;;;;;14.25;3.85;;;;;;;21.83;50.28;95136.56;4918785;29;20035;-81
2021/07/10 00:20:11;;;;;;;6.25;3.88;;;;;;;21.85;50.35;95130.97;4919263;29;20424;-81
2021/07/10 00:22:36;;;;;;;9.95;3.83;;;;;;;21.85;50.04;95130.97;4919216;29;20034;-81
2021/07/10 00:25:05;;;;;;;21.70;3.90;;;;;;;21.90;49.57;95125.56;4918824;29;20035;-81
2021/07/10 00:27:37;;;;;;;11.80;3.58;;;;;;;21.90;49.36;95133.50;4934663;29;20027;-81
2021/07/10 00:30:03;;;;;;;;;;;;;;;21.86;49.66;95137.81;4935618;29;20047;-81
2021/07/10 00:32:28;;;;;;;12.77;3.90;;;;;;;21.87;49.76;95118.22;4935822;29;19926;-81
2021/07/10 00:34:54;;;;;;;7.90;3.67;;;;;;;21.87;49.23;95112.91;4914776;29;20028;-81
2021/07/10 00:37:19;;;;;;;3.70;3.40;;;;;;;21.82;49.18;95116.47;4935327;29;20024;-81
2021/07/10 00:39:44;;;;;;;14.07;3.60;;;;;;;21.78;49.06;95112.03;4935541;29;20046;-80
2021/07/10 00:42:10;;;;;;;9.60;4.15;;;;;;;21.79;48.82;95116.25;4918336;29;20042;-81
2021/07/10 00:44:35;;;;;;;8.05;4.00;;;;;;;21.77;48.68;95113.88;4936233;29;20040;-81
2021/07/10 00:47:01;;;;;;;10.50;3.78;;;;;;;21.70;48.84;95113.50;4935296;29;20047;-80
2021/07/10 00:49:26;;;;;;;8.98;3.47;;;;;;;21.71;48.71;95103.72;4918354;29;20055;-80
2021/07/10 00:51:52;;;;;;;11.00;4.03;;;;;;;21.67;48.93;95121.25;4918100;29;20039;-80
2021/07/10 00:54:17;;;;;;;7.13;3.28;;;;;;;21.63;48.93;95117.59;4935786;29;20027;-80
2021/07/10 00:56:45;;;;;;;15.23;3.45;;;;;;;21.56;48.96;95113.50;4918236;29;20038;-80
2021/07/10 00:59:11;;;;;;;9.15;3.70;;;;;;;21.53;49.02;95103.50;4919158;29;20074;-80
2021/07/10 01:01:36;;;;;;;12.27;3.95;;;;;;;21.49;48.87;95089.31;4917552;29;20036;-80
2021/07/10 01:04:02;;;;;;;5.22;3.53;;;;;;;21.56;48.62;95094.19;4936559;29;20031;-79
2021/07/10 01:06:28;;;;;;;9.75;4.05;;;;;;;21.61;48.41;95082.72;4934938;29;20028;-81
2021/07/10 01:08:53;;;;;;;12.23;3.15;;;;;;;21.68;48.35;95083.13;4918596;29;20043;-80
2021/07/10 01:11:19;;;;;;;6.75;3.17;;;;;;;21.69;48.21;95084.69;4918380;29;20507;-81
2021/07/10 01:13:44;;;;;;;3.90;3.40;;;;;;;21.68;48.00;95088.41;4916874;29;20116;-80
2021/07/10 01:16:10;;;;;;;6.90;3.50;;;;;;;21.65;48.07;95089.81;4935291;29;20046;-80
2021/07/10 01:18:35;;;;;;;5.05;3.60;;;;;;;21.70;48.15;95091.56;4935399;29;20039;-80
2021/07/10 01:21:00;;;;;;;6.88;3.63;;;;;;;21.67;48.05;95092.94;4939156;29;20058;-80
2021/07/10 01:23:26;;;;;;;7.13;3.40;;;;;;;21.65;47.83;95089.81;4940331;29;20082;-80
2021/07/10 01:25:51;;;;;;;11.25;3.60;;;;;;;21.63;47.93;95099.09;4940936;29;20419;-79
2021/07/10 01:28:17;;;;;;;11.73;3.42;;;;;;;21.64;47.79;95090.06;4933955;29;20044;-81
2021/07/10 01:30:43;;;;;;;5.22;3.20;;;;;;;21.68;47.68;95077.84;4919605;29;20042;-80
2021/07/10 01:33:11;;;;;;;6.00;3.15;;;;;;;21.68;47.60;95072.53;4903479;29;20095;-81
2021/07/10 01:35:37;;;;;;;12.43;3.65;;;;;;;21.64;47.52;95076.84;4917488;29;20028;-81
2021/07/10 01:38:13;;;;;;;3.72;3.17;;;;;;;21.64;47.41;95068.88;4932694;29;20094;-82
2021/07/10 01:40:44;;;;;;;13.13;3.60;;;;;;;21.64;47.29;95063.59;4917948;29;20036;-82
2021/07/10 01:43:11;;;;;;;11.95;3.47;;;;;;;21.63;47.29;95064.69;4917828;29;20043;-80
2021/07/10 01:45:37;;;;;;;5.82;3.13;;;;;;;21.66;47.10;95064.91;4936346;29;20574;-80
2021/07/10 01:48:03;;;;;;;6.72;3.83;;;;;;;21.60;46.99;95054.69;4921238;29;20039;-80
2021/07/10 01:50:28;;;;;;;9.48;3.42;;;;;;;21.60;47.22;95044.88;4921217;29;20035;-79
2021/07/10 01:52:57;;;;;;;4.35;3.50;;;;;;;21.58;47.06;95047.84;4937654;29;20090;-79
2021/07/10 01:55:23;;;;;;;8.27;3.60;;;;;;;21.57;47.17;95058.72;4921103;29;20075;-79
2021/07/10 01:57:50;;;;;;;12.55;3.50;;;;;;;21.56;47.01;95055.28;4904985;29;20459;-79
2021/07/10 02:00:17;;;;;;;10.60;3.55;;;;;;;21.54;47.17;95057.44;4936033;29;20035;-79
2021/07/10 02:02:42;;;;;;;7.80;3.58;;;;;;;21.61;47.00;95054.38;4937327;29;20598;-79
2021/07/10 02:05:09;;;;;;;11.88;3.45;;;;;;;21.68;46.88;95059.31;4919975;29;20062;-79
2021/07/10 02:07:38;;;;;;;8.75;3.65;;;;;;;21.73;46.90;95059.19;4919971;29;20042;-79
2021/07/10 02:10:08;;;;;;;11.02;3.67;;;;;;;21.74;46.95;95068.69;4919859;29;20040;-79
2021/07/10 02:12:33;;;;;;;5.15;3.88;;;;;;;21.74;46.96;95071.34;5791885;23;20038;-79
2021/07/10 02:15:03;;;;;;;5.90;3.65;;;;;;;21.70;46.86;95071.16;4966244;28;20031;-79
2021/07/10 02:17:28;;;;;;;12.15;3.95;;;;;;;21.75;46.79;95075.56;4948072;28;20160;-79
2021/07/10 02:19:54;;;;;;;5.35;3.30;;;;;;;21.80;46.84;95078.09;4948029;29;20416;-79
2021/07/10 02:22:19;;;;;;;6.53;3.88;;;;;;;21.81;46.87;95066.47;4930277;29;20090;-79
2021/07/10 02:24:45;;;;;;;8.13;3.75;;;;;;;21.83;46.73;95074.88;4931149;29;20050;-79
2021/07/10 02:27:11;;;;;;;4.13;3.67;;;;;;;21.82;46.93;95075.97;4933637;29;20028;-79
2021/07/10 02:29:36;;;;;;;6.90;3.60;;;;;;;21.82;46.66;95068.81;4929729;29;20040;-79
2021/07/10 02:32:02;;;;;;;8.15;3.95;;;;;;;21.82;46.75;95068.81;4933400;29;20035;-79
2021/07/10 02:34:27;;;;;;;8.15;3.78;;;;;;;21.75;46.74;95073.69;4945571;29;20471;-79
2021/07/10 02:36:53;;;;;;;3.90;3.60;;;;;;;21.69;46.68;95079.41;4928771;29;20112;-79
2021/07/10 02:39:18;;;;;;;12.27;4.05;;;;;;;21.70;46.94;95075.66;4946749;29;20039;-79
2021/07/10 02:41:53;;;;;;;12.93;4.10;;;;;;;21.70;46.74;95076.44;4927983;29;20054;-79
2021/07/10 02:44:18;;;;;;;8.05;4.18;;;;;;;21.68;46.47;95075.97;4937727;29;20452;-79
2021/07/10 02:46:44;;;;;;;8.98;4.00;;;;;;;21.65;46.66;95075.78;4945783;28;20042;-79
2021/07/10 02:49:09;;;;;;;16.38;4.03;;;;;;;21.61;46.46;95082.72;4929033;29;20043;-80
2021/07/10 02:51:35;;;;;;;8.27;3.67;;;;;;;21.58;46.57;95079.59;4948759;29;20031;-79
2021/07/10 02:54:00;;;;;;;13.95;4.05;;;;;;;21.60;46.72;95075.84;4929572;29;20054;-79
2021/07/10 02:56:26;;;;;;;7.35;4.47;;;;;;;21.52;46.81;95080.78;4930559;29;20040;-79
2021/07/10 02:58:52;;;;;;;5.88;3.85;;;;;;;21.56;47.00;95073.81;4913540;29;20032;-79
2021/07/10 03:01:18;;;;;;;10.18;4.38;;;;;;;21.57;46.67;95070.06;4959456;29;20047;-79
2021/07/10 03:03:52;;;;;;;9.68;4.22;;;;;;;21.65;47.22;95073.13;4949649;29;20099;-79
2021/07/10 03:06:21;;;;;;;8.43;5.07;;;;;;;21.70;49.03;95080.97;4939781;29;20493;-80
2021/07/10 03:08:46;;;;;;;8.70;5.20;;;;;;;21.71;49.59;95074.59;4927223;29;20039;-80
2021/07/10 03:11:12;;;;;;;17.42;6.78;;;;;;;21.69;49.85;95082.03;4945871;28;20030;-79
2021/07/10 03:13:38;;;;;;;16.48;7.65;;;;;;;21.69;49.88;95076.75;4947052;29;20041;-80
2021/07/10 03:16:04;;;;;;;21.52;5.82;;;;;;;21.67;50.39;95077.06;4930398;29;20043;-80
2021/07/10 03:18:29;;;;;;;9.20;4.38;;;;;;;21.63;50.61;95077.91;4944500;29;20039;-82
2021/07/10 03:20:55;;;;;;;8.07;5.55;;;;;;;21.70;50.95;95075.66;4947505;29;20044;-80
2021/07/10 03:23:20;;;;;;;23.73;9.27;;;;;;;21.74;50.37;95076.66;4945128;29;20043;-82
2021/07/10 03:25:47;;;;;;;18.63;9.38;;;;;;;21.77;50.37;95073.41;4946334;28;20046;-82
2021/07/10 03:28:13;;;;;;;25.77;7.57;;;;;;;21.79;49.87;95073.88;4945135;29;20045;-79
2021/07/10 03:30:39;;;;;;;14.88;6.20;;;;;;;21.80;48.67;95062.22;4928831;28;20627;-80
2021/07/10 03:33:04;;;;;;;13.13;5.15;;;;;;;21.77;47.72;95060.94;4929605;29;20038;-80
2021/07/10 03:35:30;;;;;;;5.88;4.18;;;;;;;21.81;47.39;95058.50;4946904;28;20038;-80
2021/07/10 03:37:57;;;;;;;14.00;4.93;;;;;;;21.84;47.79;95063.22;4912878;29;20110;-81
2021/07/10 03:40:24;;;;;;;14.18;5.10;;;;;;;22.03;47.02;95063.09;4913565;29;20053;-80
2021/07/10 03:42:50;;;;;;;10.48;4.45;;;;;;;22.17;46.38;95066.50;4912910;29;20039;-80
2021/07/10 03:45:16;;;;;;;6.85;4.47;;;;;;;22.25;46.35;95071.09;4946013;29;20055;-80
2021/07/10 03:47:41;;;;;;;6.60;3.90;;;;;;;22.44;45.92;95073.56;4946033;29;20027;-80
2021/07/10 03:50:08;;;;;;;6.68;3.97;;;;;;;22.58;45.52;95071.66;4945374;29;20051;-81
2021/07/10 03:52:34;;;;;;;11.63;4.20;;;;;;;22.67;45.68;95072.53;4984296;23;20093;-80
2021/07/10 03:55:01;;;;;;;8.55;4.15;;;;;;;22.86;45.18;95074.22;4974592;28;20042;-81
2021/07/10 03:57:27;;;;;;;12.98;3.50;;;;;;;23.07;44.72;95075.28;4964019;28;20530;-80
2021/07/10 03:59:55;;;;;;;8.48;4.10;;;;;;;23.24;44.24;95070.06;4933926;28;20234;-81
2021/07/10 04:02:21;;;;;;;10.85;3.92;;;;;;;23.38;43.50;95069.19;4950085;28;20035;-81
2021/07/10 04:04:46;;;;;;;5.35;3.60;;;;;;;23.58;42.74;95068.66;4963721;28;20039;-81
2021/07/10 04:07:15;;;;;;;7.85;3.88;;;;;;;23.81;42.48;95067.50;4945206;28;20043;-81
2021/07/10 04:09:40;;;;;;;14.40;3.97;;;;;;;24.64;40.82;95064.00;4963562;28;20396;-81
2021/07/10 04:12:06;;;;;;;4.25;3.72;;;;;;;25.97;38.10;95061.88;4963598;28;20037;-81
2021/07/10 04:14:31;;;;;;;8.82;4.30;;;;;;;27.31;36.49;95048.34;4962556;28;20037;-81
2021/07/10 04:16:58;;;;;;;5.07;3.78;;;;;;;28.45;33.44;95049.19;4947559;28;20063;-81
2021/07/10 04:19:23;;;;;;;7.75;3.17;;;;;;;29.49;30.99;95055.44;4946642;28;20039;-81
2021/07/10 04:21:48;;;;;;;6.55;2.90;;;;;;;30.36;29.15;95051.66;4949626;28;20059;-81
2021/07/10 04:24:14;;;;;;;23.15;3.22;;;;;;;31.13;27.91;95056.25;4932969;28;20035;-82
2021/07/10 04:26:39;;;;;;;10.63;3.30;;;;;;;31.88;27.30;95053.69;4933013;28;20061;-82
2021/07/10 04:29:05;;;;;;;12.40;3.40;;;;;;;32.80;25.58;95043.41;4962563;28;20038;-82
2021/07/10 04:31:30;;;;;;;6.70;3.17;;;;;;;33.41;24.33;95055.59;5121197;23;20035;-81
2021/07/10 04:33:56;;;;;;;5.93;2.92;;;;;;;34.20;23.70;95056.94;4963241;28;20093;-81
2021/07/10 04:36:21;;;;;;;6.22;3.17;;;;;;;34.91;23.04;95051.13;4955586;28;20034;-81
2021/07/10 04:38:47;;;;;;;7.07;2.80;;;;;;;35.55;21.88;95051.25;4928897;29;20035;-81
2021/07/10 04:41:12;;;;;;;11.63;3.03;;;;;;;36.09;20.91;95049.28;4928529;29;20443;-82
2021/07/10 04:43:38;;;;;;;4.72;2.80;;;;;;;36.85;20.24;95047.94;4920884;29;20118;-81
2021/07/10 04:46:04;;;;;;;8.32;2.60;;;;;;;37.29;19.89;95049.25;4984990;23;20122;-80
2021/07/10 04:48:29;;;;;;;5.68;2.75;;;;;;;37.99;18.99;95052.59;4953904;29;20417;-81
2021/07/10 04:50:55;;;;;;;9.73;3.10;;;;;;;38.47;18.47;95052.50;4954125;29;20483;-81
2021/07/10 04:53:20;;;;;;;10.07;2.75;;;;;;;39.05;18.09;95050.59;4921942;29;20043;-81
2021/07/10 04:55:46;;;;;;;10.93;2.60;;;;;;;39.73;17.13;95066.00;4921328;29;20070;-82
2021/07/10 04:58:11;;;;;;;13.23;2.60;;;;;;;40.24;16.40;95062.00;4954699;29;20487;-80
2021/07/10 05:00:37;;;;;;;11.82;2.50;;;;;;;40.67;16.27;95061.19;4920794;29;20340;-80
2021/07/10 05:03:02;;;;;;;10.20;2.45;;;;;;;41.11;15.68;95051.72;4953373;29;20423;-80
2021/07/10 05:05:28;;;;;;;5.22;2.15;;;;;;;41.85;15.34;95048.50;4953602;29;20521;-82
2021/07/10 05:07:53;;;;;;;8.68;2.28;;;;;;;42.33;14.63;95057.81;4937042;29;20418;-81
2021/07/10 05:10:19;;;;;;;7.47;2.30;;;;;;;42.80;14.73;95050.66;4954293;29;20036;-81
2021/07/10 05:12:45;;;;;;;5.55;2.30;;;;;;;43.59;14.17;95048.28;4954653;29;20110;-81
2021/07/10 05:15:10;;;;;;;10.75;2.33;;;;;;;44.07;13.32;95057.28;4921826;29;20086;-81
2021/07/10 05:17:36;;;;;;;8.15;2.50;;;;;;;44.51;12.82;95058.94;4955278;29;20566;-81
2021/07/10 05:20:05;;;;;;;5.40;2.10;;;;;;;45.20;12.57;95055.97;4921374;29;20055;-80
2021/07/10 05:22:40;;;;;;;8.70;2.20;;;;;;;45.65;12.06;95051.16;4937578;29;20510;-81
2021/07/10 05:25:06;;;;;;;8.98;2.60;;;;;;;46.00;11.82;95051.66;4936630;29;20049;-81
2021/07/10 05:27:31;;;;;;;11.85;2.58;;;;;;;46.04;11.74;95055.78;4953045;29;20035;-81
2021/07/10 05:29:57;;;;;;;8.65;2.17;;;;;;;46.62;11.11;95062.38;4955039;29;20058;-81
2021/07/10 05:32:22;;;;;;;8.10;1.80;;;;;;;46.23;11.21;95067.59;4954704;29;20031;-81
2021/07/10 05:34:48;;;;;;;16.45;2.15;;;;;;;46.03;11.58;95059.00;4957752;29;20036;-81
2021/07/10 05:37:16;;;;;;;11.52;2.40;;;;;;;46.02;11.78;95061.00;5016204;23;20066;-81
2021/07/10 05:39:42;;;;;;;12.38;2.10;;;;;;;45.97;11.52;95060.81;4975910;28;20036;-80
2021/07/10 05:42:09;;;;;;;5.43;2.33;;;;;;;46.27;11.31;95051.69;4940647;29;20032;-81
2021/07/10 05:44:34;;;;;;;6.82;1.95;;;;;;;46.41;11.31;95055.09;4896289;29;20039;-81
2021/07/10 05:47:00;;;;;;;9.65;2.20;;;;;;;46.57;11.34;95058.28;5034414;23;20606;-81
2021/07/10 05:49:25;;;;;;;13.02;2.80;;;;;;;46.30;10.91;95061.78;4966213;28;20045;-81
2021/07/10 05:51:51;;;;;;;6.88;2.10;;;;;;;46.21;11.35;95056.25;4944221;23;20061;-81
2021/07/10 05:54:17;;;;;;;7.18;2.25;;;;;;;45.32;11.41;95065.38;4972848;28;20047;-81
2021/07/10 05:56:55;;;;;;;4.15;1.92;;;;;;;45.06;12.05;95066.72;4953705;28;20042;-80
2021/07/10 05:59:20;;;;;;;3.33;2.10;;;;;;;44.35;12.39;95066.53;4971147;28;20043;-81
2021/07/10 06:01:46;;;;;;;11.18;2.35;;;;;;;43.73;12.75;95064.28;4965371;28;20035;-81
2021/07/10 06:04:11;;;;;;;12.13;2.22;;;;;;;43.53;13.13;95067.25;4965790;28;20047;-80
2021/07/10 06:06:36;;;;;;;3.78;2.20;;;;;;;42.73;13.66;95063.75;4963006;28;20042;-81
2021/07/10 06:09:02;;;;;;;9.77;2.53;;;;;;;42.82;13.74;95058.41;4964155;28;20042;-81
2021/07/10 06:11:27;;;;;;;8.75;2.75;;;;;;;42.79;13.88;95062.00;4963692;28;20093;-81
2021/07/10 06:13:53;;;;;;;9.30;2.30;;;;;;;42.68;13.32;95065.06;4963276;28;20330;-81
2021/07/10 06:16:19;;;;;;;8.98;2.72;;;;;;;43.22;13.31;95064.28;4970395;28;20055;-81
2021/07/10 06:18:44;;;;;;;11.25;2.47;;;;;;;43.77;12.94;95064.16;4961442;28;20126;-81
2021/07/10 06:21:10;;;;;;;15.13;2.72;;;;;;;44.38;12.99;95065.66;4963036;28;20047;-82
2021/07/10 06:23:35;;;;;;;10.23;2.50;;;;;;;44.83;12.07;95070.72;4948697;28;20122;-82
2021/07/10 06:26:01;;;;;;;6.35;2.60;;;;;;;44.50;12.66;95064.88;4965478;28;20121;-82
2021/07/10 06:28:26;;;;;;;7.65;2.28;;;;;;;44.64;12.57;95069.06;4964863;28;20042;-81
2021/07/10 06:31:17;;;;;;;9.27;2.53;;;;;;;44.63;12.35;95067.53;4948829;28;20038;-82
2021/07/10 06:33:43;;;;;;;;;;;;;;;44.83;12.37;95071.47;4968756;28;20039;-82
2021/07/10 06:36:08;;;;;;;6.70;1.90;;;;;;;44.89;11.92;95075.19;4990360;28;19952;-81
2021/07/10 06:38:34;;;;;;;10.77;2.03;;;;;;;44.85;12.12;95079.25;4971266;28;20027;-82
2021/07/10 06:40:59;;;;;;;12.07;2.28;;;;;;;44.20;12.52;95069.78;4972513;28;20047;-82
2021/07/10 06:43:25;;;;;;;9.93;2.72;;;;;;;44.06;12.90;95066.72;4943382;28;20082;-82
2021/07/10 06:45:53;;;;;;;5.85;1.90;;;;;;;44.39;12.64;95065.19;4966457;28;20031;-82
2021/07/10 06:48:19;;;;;;;7.30;2.05;;;;;;;44.17;12.81;95069.91;4969089;28;20027;-82
2021/07/10 06:50:44;;;;;;;11.90;2.20;;;;;;;44.09;12.77;95068.56;4967070;28;20032;-81
2021/07/10 06:53:10;;;;;;;12.70;2.40;;;;;;;44.31;12.72;95063.94;4950138;28;20039;-81
2021/07/10 06:55:35;;;;;;;5.28;2.40;;;;;;;44.27;12.68;95066.81;4969194;28;20032;-81
2021/07/10 06:58:01;;;;;;;3.58;2.30;;;;;;;43.76;13.28;95063.41;4966626;28;20027;-81
2021/07/10 07:00:26;;;;;;;7.18;2.38;;;;;;;43.54;13.21;95062.53;4948231;28;20050;-81
2021/07/10 07:02:52;;;;;;;8.48;2.58;;;;;;;43.51;13.42;95057.94;4949293;28;20038;-81
2021/07/10 07:05:22;;;;;;;6.75;1.95;;;;;;;42.26;14.28;95062.25;4934059;28;20034;-80
2021/07/10 07:07:54;;;;;;;6.03;2.53;;;;;;;41.35;15.00;95057.84;4946448;28;20036;-81
2021/07/10 07:10:19;;;;;;;5.50;2.75;;;;;;;40.92;16.18;95060.72;4966379;28;20466;-81
2021/07/10 07:12:45;;;;;;;10.07;2.40;;;;;;;40.87;15.76;95053.81;4965631;28;20031;-81
2021/07/10 07:15:10;;;;;;;11.15;2.42;;;;;;;40.59;16.35;95057.09;4965862;28;20039;-81
2021/07/10 07:17:36;;;;;;;31.52;2.97;;;;;;;40.42;16.58;95054.31;4966014;28;20419;-81
2021/07/10 07:20:04;;;;;;;9.32;2.60;;;;;;;40.17;16.80;95062.13;4948369;28;20043;-81
2021/07/10 07:22:29;;;;;;;14.70;2.15;;;;;;;39.65;17.12;95056.38;4967553;28;20122;-81
2021/07/10 07:24:54;;;;;;;10.63;2.38;;;;;;;39.41;17.22;95061.03;4966152;28;20404;-82
2021/07/10 07:27:20;;;;;;;17.70;2.40;;;;;;;38.84;18.01;95056.34;4932278;28;20475;-82
2021/07/10 07:29:45;;;;;;;3.40;2.30;;;;;;;38.26;19.03;95048.06;4950750;28;20063;-82
2021/07/10 07:32:11;;;;;;;4.05;2.70;;;;;;;37.78;19.51;95048.13;4950394;28;20043;-80
2021/07/10 07:34:36;;;;;;;13.70;2.25;;;;;;;37.33;19.39;95045.34;4933269;28;20431;-81
2021/07/10 07:37:02;;;;;;;12.52;2.72;;;;;;;36.77;19.96;95043.66;4948150;28;20031;-81
2021/07/10 07:39:28;;;;;;;6.07;2.88;;;;;;;36.28;20.67;95043.44;4956956;28;20075;-80
2021/07/10 07:41:53;;;;;;;4.93;2.47;;;;;;;36.25;20.96;95044.22;4947542;28;20023;-80
2021/07/10 07:44:19;;;;;;;5.28;2.83;;;;;;;36.06;21.02;95041.94;4932762;28;20075;-80
2021/07/10 07:46:44;;;;;;;7.82;2.88;;;;;;;35.83;21.57;95033.47;4966956;28;20027;-79
2021/07/10 07:49:10;;;;;;;11.52;2.75;;;;;;;35.84;21.65;95041.22;4930855;28;20106;-82
2021/07/10 07:51:35;;;;;;;5.60;2.35;;;;;;;35.66;21.63;95057.44;4947855;28;20389;-82
2021/07/10 07:54:01;;;;;;;5.75;3.10;;;;;;;35.46;21.97;95040.03;4966202;28;20106;-81
2021/07/10 07:56:26;;;;;;;7.50;2.22;;;;;;;35.20;22.36;95043.84;4948856;28;20035;-80
2021/07/10 07:58:52;;;;;;;6.70;2.58;;;;;;;35.01;22.77;95034.16;4962007;28;20035;-79
2021/07/10 08:01:18;;;;;;;10.60;2.75;;;;;;;35.06;23.23;95039.19;4932098;28;20038;-81
2021/07/10 08:03:43;;;;;;;16.27;3.05;;;;;;;35.13;23.53;95046.53;4964911;28;20039;-80
2021/07/10 08:06:09;;;;;;;17.27;3.08;;;;;;;35.10;23.22;95036.50;4946044;28;20039;-81
2021/07/10 08:08:36;;;;;;;11.90;3.15;;;;;;;35.12;23.47;95039.56;4945653;28;20031;-81
2021/07/10 08:11:04;;;;;;;35.92;3.97;;;;;;;35.06;26.19;95035.72;4967220;28;20435;-80
2021/07/10 08:13:30;;;;;;;12.80;3.35;;;;;;;34.91;24.00;95037.63;4950669;28;20150;-80
2021/07/10 08:15:56;;;;;;;9.30;3.13;;;;;;;34.34;24.33;95023.84;4967953;28;20031;-80
2021/07/10 08:18:21;;;;;;;7.82;3.50;;;;;;;34.31;24.83;95030.00;4966642;28;20043;-81
2021/07/10 08:20:46;;;;;;;5.95;2.80;;;;;;;34.32;24.45;95026.13;4966427;28;20050;-81
2021/07/10 08:23:13;;;;;;;8.43;3.17;;;;;;;34.27;25.12;95015.72;4965104;28;20043;-81
2021/07/10 08:25:39;;;;;;;4.30;2.63;;;;;;;33.98;25.06;95018.25;4967526;28;20384;-81
2021/07/10 08:28:04;;;;;;;12.95;3.40;;;;;;;33.84;25.04;95028.16;4964882;28;20071;-80
2021/07/10 08:30:30;;;;;;;8.30;3.03;;;;;;;33.19;26.00;95021.44;4964197;28;20443;-79
2021/07/10 08:32:55;;;;;;;10.98;3.30;;;;;;;32.77;26.40;95017.16;4948646;28;20030;-81
2021/07/10 08:37:55;;;;;;;7.07;2.90;;;;;;;33.03;26.28;95010.13;5179452;23;20047;-80
2021/07/10 08:40:22;;;;;;;6.00;2.42;;;;;;;33.15;26.89;95012.56;4949084;29;20133;-81
2021/07/10 08:42:50;;;;;;;4.93;3.15;;;;;;;32.98;26.72;95005.88;4936531;29;20503;-80
2021/07/10 08:45:16;;;;;;;9.27;3.17;;;;;;;32.88;27.07;95016.56;4923648;29;20616;-80
2021/07/10 08:47:42;;;;;;;4.18;3.30;;;;;;;32.81;27.44;95012.63;4937785;29;20103;-81
2021/07/10 08:50:09;;;;;;;17.08;2.90;;;;;;;32.92;26.89;95012.75;4938536;29;20111;-80
2021/07/10 08:52:35;;;;;;;8.50;3.22;;;;;;;32.92;27.21;95017.34;4938419;29;20083;-80
2021/07/10 08:55:03;;;;;;;11.88;2.83;;;;;;;32.89;27.67;95013.50;4938087;29;20663;-81
2021/07/10 08:57:30;;;;;;;12.75;2.63;;;;;;;32.87;27.26;95014.97;4938785;29;20468;-81
2021/07/10 08:59:56;;;;;;;12.05;2.88;;;;;;;32.80;27.21;95008.38;4938325;29;20119;-81
2021/07/10 09:02:21;;;;;;;13.13;3.17;;;;;;;32.34;27.87;95015.13;4921602;29;20027;-81
2021/07/10 09:04:47;;;;;;;13.27;2.90;;;;;;;32.24;28.48;95006.53;4939263;29;20055;-81
2021/07/10 09:07:12;;;;;;;6.15;3.28;;;;;;;32.28;28.40;95020.06;4954290;28;20047;-81
2021/07/10 09:09:47;;;;;;;7.07;3.00;;;;;;;32.20;27.95;95008.38;4922409;29;20039;-81
2021/07/10 09:12:13;;;;;;;11.07;3.50;;;;;;;32.25;28.58;95004.63;4937175;29;20042;-81
2021/07/10 09:14:39;;;;;;;7.30;3.15;;;;;;;32.38;28.22;95005.16;4937269;29;20036;-81
2021/07/10 09:17:19;;;;;;;6.78;3.72;;;;;;;32.01;28.49;95008.53;4935918;29;20032;-81
2021/07/10 09:19:45;;;;;;;11.45;3.30;;;;;;;31.95;28.80;95001.91;4937464;29;20036;-81
2021/07/10 09:22:12;;;;;;;16.52;3.55;;;;;;;31.95;28.63;95007.28;4937468;29;20070;-81
2021/07/10 09:24:38;;;;;;;11.82;3.35;;;;;;;31.91;28.69;95006.47;4920454;29;20134;-81
2021/07/10 09:27:08;;;;;;;12.38;3.22;;;;;;;31.57;29.06;95009.03;4938417;29;20036;-81
2021/07/10 09:29:43;;;;;;;4.40;2.83;;;;;;;31.45;28.69;95003.84;4936994;29;20068;-81
2021/07/10 09:32:11;;;;;;;5.90;2.92;;;;;;;31.41;29.13;95003.03;4937219;29;20036;-81
2021/07/10 09:34:40;;;;;;;6.05;3.17;;;;;;;31.45;29.35;94998.47;4936961;29;20028;-81
2021/07/10 09:37:10;;;;;;;9.55;3.13;;;;;;;31.59;29.06;94993.31;4934478;29;20070;-81
2021/07/10 09:39:56;;;;;;;5.00;3.20;;;;;;;31.40;29.16;94993.38;4936638;29;20038;-81
2021/07/10 09:42:32;;;;;;;20.73;3.70;;;;;;;31.29;29.58;94989.78;4915591;29;20143;-81
2021/07/10 09:44:58;;;;;;;12.20;3.50;;;;;;;30.55;30.92;94999.91;4916259;29;20579;-80
2021/07/10 09:47:36;;;;;;;10.43;3.15;;;;;;;30.58;31.13;94993.81;4926609;29;20036;-81
2021/07/10 09:50:06;;;;;;;6.50;3.35;;;;;;;30.76;30.20;94994.97;4931855;29;20032;-81
2021/07/10 09:52:40;;;;;;;6.95;3.03;;;;;;;30.73;29.90;94992.97;4941511;29;20099;-80
2021/07/10 09:55:07;;;;;;;7.00;3.13;;;;;;;30.63;30.35;94985.53;4994476;23;20066;-80
2021/07/10 09:57:37;;;;;;;7.80;3.10;;;;;;;30.76;29.81;94989.59;4970208;28;20030;-80
2021/07/10 10:00:06;;;;;;;12.90;3.50;;;;;;;30.85;30.55;94981.31;4957529;28;20022;-80
2021/07/10 10:02:33;;;;;;;10.30;2.85;;;;;;;30.82;29.84;94977.44;4973515;28;20039;-80
2021/07/10 10:05:12;;;;;;;9.70;3.03;;;;;;;30.72;29.54;94972.63;4957391;28;20046;-80
2021/07/10 10:07:51;;;;;;;7.57;2.90;;;;;;;30.59;30.24;94987.31;4975899;28;20062;-80
2021/07/10 10:10:26;;;;;;;14.90;3.13;;;;;;;30.38;30.32;94971.59;4976651;28;20026;-80
2021/07/10 10:13:19;;;;;;;10.85;3.00;;;;;;;30.33;29.62;94971.88;4952509;28;20045;-80
2021/07/10 10:15:51;;;;;;;4.57;2.70;;;;;;;30.53;30.02;94976.09;4960101;28;20387;-81
2021/07/10 10:18:24;;;;;;;10.27;2.40;;;;;;;30.54;29.59;94969.59;4974979;28;20038;-80
2021/07/10 10:20:50;;;;;;;7.80;2.90;;;;;;;30.42;29.11;94970.50;4979232;28;20038;-79
2021/07/10 10:23:16;;;;;;;6.38;2.80;;;;;;;30.32;29.44;94971.09;4996659;28;20054;-81
2021/07/10 10:28:20;;;;;;;7.00;2.70;;;;;;;30.23;29.63;94967.06;4950709;29;20073;-81
2021/07/10 10:30:49;;;;;;;10.82;3.05;;;;;;;30.09;29.76;94989.00;4949035;29;20043;-82
2021/07/10 10:33:18;;;;;;;4.35;2.95;;;;;;;30.05;30.25;94972.84;4941408;29;20561;-81
2021/07/10 10:35:45;;;;;;;4.90;2.80;;;;;;;30.09;29.42;94962.19;4939126;29;20027;-81
2021/07/10 10:38:11;;;;;;;10.45;2.45;;;;;;;30.06;29.16;94961.00;4923940;29;20039;-80
2021/07/10 10:40:36;;;;;;;8.27;2.50;;;;;;;29.49;29.98;94967.00;4924373;29;20121;-81
2021/07/10 10:43:02;;;;;;;8.73;2.88;;;;;;;29.38;30.84;94972.09;4940597;29;20035;-81
2021/07/10 10:45:28;;;;;;;6.45;2.80;;;;;;;29.00;30.75;94972.72;4924753;29;20486;-81
2021/07/10 10:47:54;;;;;;;4.68;2.63;;;;;;;29.01;30.81;94966.22;4957823;29;20039;-81
2021/07/10 10:50:39;;;;;;;8.05;3.05;;;;;;;29.35;29.83;94959.38;4908772;29;20039;-81
2021/07/10 10:53:05;;;;;;;7.72;2.70;;;;;;;29.71;29.54;94958.31;4940639;29;20075;-81
2021/07/10 10:55:31;;;;;;;9.90;2.80;;;;;;;29.81;29.53;94951.63;4940867;29;20054;-82
2021/07/10 10:58:09;;;;;;;6.32;3.33;;;;;;;29.85;29.28;94963.22;4953260;29;20028;-73
2021/07/10 11:00:38;;;;;;;7.18;2.88;;;;;;;29.23;29.97;94944.19;4951731;29;20071;-74
2021/07/10 11:03:19;;;;;;;4.50;2.60;;;;;;;29.23;30.79;94954.91;4952045;29;20042;-73
2021/07/10 11:05:52;;;;;;;5.32;3.00;;;;;;;29.40;29.18;94945.72;4933949;29;20113;-74
2021/07/10 11:08:20;;;;;;;4.10;2.85;;;;;;;29.60;28.97;94949.25;4948681;29;20113;-74
2021/07/10 11:11:06;;;;;;;4.93;2.60;;;;;;;29.51;28.75;94946.00;4951914;29;20031;-74
2021/07/10 11:13:36;;;;;;;8.63;2.47;;;;;;;29.65;29.15;94946.31;4937456;29;20483;-74
2021/07/10 11:16:09;;;;;;;8.00;2.70;;;;;;;28.77;29.38;94942.25;4951637;29;20041;-74
2021/07/10 11:18:50;;;;;;;4.35;2.58;;;;;;;28.63;29.97;94938.09;4934177;29;20114;-74
2021/07/10 11:21:48;;;;;;;5.65;3.03;;;;;;;28.77;30.45;94936.91;4951826;29;20488;-75
2021/07/10 11:24:19;;;;;;;3.45;2.75;;;;;;;28.62;30.63;94928.50;4882543;29;20487;-74
2021/07/10 11:26:47;;;;;;;4.07;2.97;;;;;;;28.66;31.36;94937.41;4950434;29;20043;-74
2021/07/10 11:29:22;;;;;;;4.05;2.97;;;;;;;28.92;31.39;94931.59;4949652;29;20135;-74
2021/07/10 11:31:47;;;;;;;11.57;3.17;;;;;;;29.21;30.90;94918.88;4934874;29;20039;-74
2021/07/10 11:34:17;;;;;;;5.50;2.45;;;;;;;29.18;30.02;94924.94;4934620;29;20090;-74
2021/07/10 11:36:45;;;;;;;4.95;2.72;;;;;;;28.95;29.93;94924.75;4951024;29;20090;-74